createdAt,value
2022-10-15T00:01:53.770Z,15.63
2022-10-15T00:04:21.651Z,17.50
2022-10-15T00:06:49.578Z,13.67
2022-10-15T00:09:17.456Z,16.00
2022-10-15T00:11:45.344Z,14.10
2022-10-15T00:14:14.549Z,15.00
2022-10-15T00:16:42.424Z,15.17
2022-10-15T00:19:11.211Z,16.90
2022-10-15T00:21:39.763Z,13.77
2022-10-15T00:24:08.445Z,13.83
2022-10-15T00:26:36.532Z,13.80
2022-10-15T00:29:05.377Z,14.67
2022-10-15T00:31:34.611Z,15.73
2022-10-15T00:34:03.691Z,19.33
2022-10-15T00:36:33.739Z,14.40
2022-10-15T00:39:02.413Z,14.20
2022-10-15T00:41:32.728Z,14.83
2022-10-15T00:44:01.983Z,15.23
2022-10-15T00:46:33.213Z,17.27
2022-10-15T00:49:06.461Z,15.97
2022-10-15T00:51:40.757Z,18.20
2022-10-15T00:54:09.364Z,16.67
2022-10-15T00:56:38.556Z,18.93
2022-10-15T00:59:07.725Z,17.73
2022-10-15T01:01:35.669Z,15.50
2022-10-15T01:04:06.944Z,15.77
2022-10-15T01:06:35.971Z,18.13
2022-10-15T01:09:04.761Z,17.37
2022-10-15T01:11:40.083Z,17.80
2022-10-15T01:14:23.734Z,17.10
2022-10-15T01:16:57.042Z,19.93
2022-10-15T01:19:44.919Z,18.23
2022-10-15T01:22:19.858Z,19.40
2022-10-15T01:25:03.408Z,20.27
2022-10-15T01:27:35.952Z,18.73
2022-10-15T01:30:20.267Z,18.57
2022-10-15T01:33:04.004Z,20.53
2022-10-15T01:35:44.566Z,19.27
2022-10-15T01:38:23.825Z,20.07
2022-10-15T01:40:59.520Z,19.13
2022-10-15T01:43:35.104Z,23.30
2022-10-15T01:46:09.843Z,21.07
2022-10-15T01:48:39.737Z,21.77
2022-10-15T01:51:08.761Z,19.77
2022-10-15T01:53:37.859Z,19.47
2022-10-15T01:56:10.861Z,20.63
2022-10-15T01:58:43.144Z,20.00
2022-10-15T02:01:12.575Z,19.97
2022-10-15T02:03:48.482Z,20.93
2022-10-15T02:06:24.171Z,21.97
2022-10-15T02:09:04.225Z,20.77
2022-10-15T02:11:39.677Z,24.37
2022-10-15T02:14:16.345Z,21.97
2022-10-15T02:16:50.586Z,24.77
2022-10-15T02:19:27.837Z,21.80
2022-10-15T02:22:04.350Z,23.87
2022-10-15T02:24:37.652Z,22.37
2022-10-15T02:27:14.723Z,26.63
2022-10-15T02:29:49.516Z,26.57
2022-10-15T02:32:37.181Z,25.00
2022-10-15T02:35:08.536Z,23.70
2022-10-15T02:37:38.185Z,21.77
2022-10-15T02:40:12.838Z,25.67
2022-10-15T02:42:41.616Z,28.63
2022-10-15T02:45:10.744Z,25.97
2022-10-15T02:47:47.416Z,23.83
2022-10-15T02:50:15.339Z,24.93
2022-10-15T02:52:51.548Z,24.20
2022-10-15T02:55:24.788Z,25.73
2022-10-15T02:57:54.136Z,25.53
2022-10-15T03:00:22.053Z,28.23
2022-10-15T03:02:51.961Z,27.10
2022-10-15T03:05:20.198Z,26.87
2022-10-15T03:07:48.041Z,27.53
2022-10-15T03:10:16.047Z,25.23
2022-10-15T03:12:43.889Z,28.27
2022-10-15T03:15:14.037Z,27.60
2022-10-15T03:17:41.860Z,28.50
2022-10-15T03:20:11.365Z,25.93
2022-10-15T03:22:39.263Z,27.93
2022-10-15T03:25:07.624Z,29.47
2022-10-15T03:27:35.513Z,27.77
2022-10-15T03:30:03.493Z,26.23
2022-10-15T03:32:33.072Z,27.50
2022-10-15T03:35:03.501Z,28.67
2022-10-15T03:37:32.734Z,26.07
2022-10-15T03:40:00.546Z,29.63
2022-10-15T03:42:28.410Z,26.77
2022-10-15T03:44:56.237Z,26.67
2022-10-15T03:47:24.025Z,28.20
2022-10-15T03:49:51.956Z,26.70
2022-10-15T03:52:19.809Z,28.73
2022-10-15T03:54:49.036Z,27.57
2022-10-15T03:57:16.893Z,29.47
2022-10-15T04:02:17.673Z,27.47
2022-10-15T04:04:45.593Z,29.83
2022-10-15T04:07:13.446Z,27.97
2022-10-15T04:09:41.290Z,25.73
2022-10-15T04:12:10.494Z,29.30
2022-10-15T04:14:38.404Z,25.40
2022-10-15T04:17:06.247Z,29.30
2022-10-15T04:19:34.109Z,28.20
2022-10-15T04:22:02.270Z,24.87
2022-10-15T04:24:30.164Z,27.33
2022-10-15T04:26:57.966Z,27.83
2022-10-15T04:29:27.349Z,27.10
2022-10-15T04:31:55.231Z,28.23
2022-10-15T04:34:23.060Z,24.83
2022-10-15T04:36:50.926Z,30.03
2022-10-15T04:39:18.913Z,27.47
2022-10-15T04:41:46.747Z,26.97
2022-10-15T04:44:14.856Z,27.27
2022-10-15T04:46:44.038Z,29.10
2022-10-15T04:49:11.980Z,26.40
2022-10-15T04:51:39.862Z,24.77
2022-10-15T04:54:19.803Z,28.40
2022-10-15T04:57:07.083Z,25.37
2022-10-15T04:59:35.341Z,27.80
2022-10-15T05:02:04.655Z,25.30
2022-10-15T05:04:32.634Z,28.07
2022-10-15T05:07:00.524Z,24.77
2022-10-15T05:09:28.444Z,32.40
2022-10-15T05:11:56.414Z,26.73
2022-10-15T05:14:24.417Z,25.97
2022-10-15T05:16:52.255Z,27.37
2022-10-15T05:19:21.714Z,25.90
2022-10-15T05:24:19.708Z,26.10
2022-10-15T05:26:47.608Z,25.97
2022-10-15T05:29:16.635Z,26.70
2022-10-15T05:31:44.536Z,23.50
2022-10-15T05:34:17.971Z,28.17
2022-10-15T05:36:47.274Z,25.03
2022-10-15T05:39:15.153Z,28.33
2022-10-15T05:41:43.000Z,28.23
2022-10-15T05:44:11.030Z,25.70
2022-10-15T05:46:39.546Z,26.43
2022-10-15T05:49:07.383Z,25.10
2022-10-15T05:51:35.250Z,26.67
2022-10-15T05:54:04.600Z,26.17
2022-10-15T05:56:32.503Z,23.00
2022-10-15T05:59:00.300Z,24.73
2022-10-15T06:01:28.161Z,25.50
2022-10-15T06:03:56.047Z,23.10
2022-10-15T06:06:26.282Z,23.80
2022-10-15T06:08:55.103Z,23.70
2022-10-15T06:11:24.282Z,25.20
2022-10-15T06:13:52.123Z,22.70
2022-10-15T06:16:23.574Z,25.33
2022-10-15T06:18:53.404Z,26.80
2022-10-15T06:21:21.432Z,24.67
2022-10-15T06:23:49.251Z,25.93
2022-10-15T06:26:17.203Z,23.53
2022-10-15T06:28:46.453Z,23.93
2022-10-15T06:31:14.387Z,23.90
2022-10-15T06:33:42.325Z,25.00
2022-10-15T06:36:13.582Z,27.20
2022-10-15T06:38:43.999Z,23.23
2022-10-15T06:41:11.998Z,24.07
2022-10-15T06:43:39.882Z,26.33
2022-10-15T06:46:09.391Z,25.90
2022-10-15T06:48:37.513Z,25.10
2022-10-15T06:51:11.117Z,27.30
2022-10-15T06:53:52.561Z,24.97
2022-10-15T06:56:23.791Z,29.90
2022-10-15T06:58:52.489Z,26.17
2022-10-15T07:01:21.941Z,28.13
2022-10-15T07:03:53.624Z,27.90
2022-10-15T07:06:21.688Z,32.23
2022-10-15T07:08:53.147Z,29.10
2022-10-15T07:11:21.127Z,28.80
2022-10-15T07:13:48.908Z,29.77
2022-10-15T07:16:16.772Z,31.37
2022-10-15T07:18:48.588Z,32.33
2022-10-15T07:21:17.563Z,30.33
2022-10-15T07:23:48.741Z,31.37
2022-10-15T07:26:16.727Z,30.23
2022-10-15T07:29:01.327Z,33.20
2022-10-15T07:31:30.535Z,35.87
2022-10-15T07:34:03.900Z,34.07
2022-10-15T07:36:53.534Z,34.10
2022-10-15T07:39:21.701Z,35.63
2022-10-15T07:41:49.632Z,34.33
2022-10-15T07:44:17.569Z,35.13
2022-10-15T07:46:45.487Z,34.23
2022-10-15T07:49:16.255Z,39.47
2022-10-15T07:52:00.528Z,35.30
2022-10-15T07:57:30.878Z,38.10
2022-10-15T07:59:58.718Z,34.20
2022-10-15T08:02:30.916Z,31.57
2022-10-15T08:05:12.215Z,30.87
2022-10-15T08:07:48.370Z,35.37
2022-10-15T08:10:24.054Z,36.20
2022-10-15T08:12:51.918Z,33.50
2022-10-15T08:15:20.176Z,36.00
2022-10-15T08:17:52.112Z,35.93
2022-10-15T08:20:21.434Z,32.33
2022-10-15T08:22:51.684Z,34.27
2022-10-15T08:25:23.287Z,32.17
2022-10-15T08:27:51.617Z,30.60
2022-10-15T08:30:19.546Z,28.40
2022-10-15T08:32:59.152Z,25.57
2022-10-15T08:39:24.449Z,28.50
2022-10-15T08:41:58.798Z,24.10
2022-10-15T08:44:29.696Z,20.67
2022-10-15T08:47:03.583Z,20.33
2022-10-15T08:50:07.274Z,20.13
2022-10-15T08:52:43.194Z,20.13
2022-10-15T08:55:30.829Z,22.00
2022-10-15T09:00:59.746Z,20.57
2022-10-15T09:03:36.861Z,19.70
2022-10-15T09:06:33.900Z,19.70
2022-10-15T09:09:09.323Z,19.57
2022-10-15T09:11:47.601Z,17.20
2022-10-15T09:14:20.467Z,16.20
2022-10-15T09:16:51.100Z,16.07
2022-10-15T09:19:21.562Z,16.40
2022-10-15T09:21:51.269Z,20.03
2022-10-15T09:24:23.009Z,14.87
2022-10-15T09:27:04.241Z,13.23
2022-10-15T09:30:05.711Z,14.43
2022-10-15T09:32:38.775Z,12.10
2022-10-15T09:35:16.442Z,12.73
2022-10-15T09:37:51.942Z,13.00
2022-10-15T09:40:45.210Z,12.30
2022-10-15T09:43:15.278Z,11.33
2022-10-15T09:45:44.459Z,10.40
2022-10-15T09:48:18.516Z,10.53
2022-10-15T09:50:53.254Z,11.47
2022-10-15T09:53:28.223Z,12.60
2022-10-15T09:56:04.743Z,10.37
2022-10-15T09:58:39.969Z,9.47
2022-10-15T10:01:18.842Z,9.87
2022-10-15T10:03:48.080Z,10.23
2022-10-15T10:06:18.556Z,10.23
2022-10-15T10:08:52.109Z,9.13
2022-10-15T10:11:21.286Z,10.37
2022-10-15T10:14:19.968Z,9.20
2022-10-15T10:17:25.510Z,9.93
2022-10-15T10:20:53.572Z,8.70
2022-10-15T10:23:51.382Z,9.80
2022-10-15T10:26:23.497Z,10.50
2022-10-15T10:29:04.864Z,8.83
2022-10-15T10:31:52.358Z,9.90
2022-10-15T10:34:33.997Z,9.83
2022-10-15T10:37:10.713Z,10.60
2022-10-15T10:39:45.973Z,9.83
2022-10-15T10:42:42.988Z,9.83
2022-10-15T10:45:28.422Z,10.00
2022-10-15T10:48:16.164Z,9.77
2022-10-15T10:51:16.863Z,9.93
2022-10-15T10:57:19.413Z,9.47
2022-10-15T10:59:55.398Z,10.50
2022-10-15T11:02:24.199Z,12.60
2022-10-15T11:04:52.342Z,10.40
2022-10-15T11:07:48.035Z,11.40
2022-10-15T11:10:46.194Z,12.77
2022-10-15T11:13:31.555Z,9.93
2022-10-15T11:16:05.120Z,10.47
2022-10-15T11:18:50.173Z,10.33
2022-10-15T11:21:42.051Z,10.60
2022-10-15T11:24:15.891Z,9.43
2022-10-15T11:27:41.748Z,9.23
2022-10-15T11:30:41.130Z,9.83
2022-10-15T11:33:30.981Z,8.50
2022-10-15T11:36:17.801Z,9.00
2022-10-15T11:39:10.138Z,7.80
2022-10-15T11:42:18.767Z,6.57
2022-10-15T11:45:27.175Z,7.30
2022-10-15T11:48:05.293Z,6.23
2022-10-15T11:50:43.596Z,6.67
2022-10-15T11:53:51.433Z,6.77
2022-10-15T11:56:26.721Z,6.50
2022-10-15T12:02:23.157Z,6.23
2022-10-15T12:04:57.494Z,4.77
2022-10-15T12:07:38.464Z,4.27
2022-10-15T12:10:23.444Z,4.20
2022-10-15T12:13:03.085Z,3.90
2022-10-15T12:15:40.608Z,3.40
2022-10-15T12:18:23.925Z,3.37
2022-10-15T12:20:55.415Z,3.27
2022-10-15T12:23:39.735Z,2.87
2022-10-15T12:26:33.626Z,3.30
2022-10-15T12:29:20.746Z,3.00
2022-10-15T12:31:55.147Z,2.83
2022-10-15T12:34:35.747Z,3.73
2022-10-15T12:37:24.936Z,3.63
2022-10-15T12:40:00.946Z,3.20
2022-10-15T12:46:08.056Z,3.10
2022-10-15T12:48:58.144Z,2.90
2022-10-15T12:52:06.299Z,3.10
2022-10-15T12:55:18.938Z,3.30
2022-10-15T12:57:56.631Z,3.50
2022-10-15T13:00:48.609Z,3.00
2022-10-15T13:03:37.577Z,3.30
2022-10-15T13:06:22.941Z,3.93
2022-10-15T13:09:08.343Z,4.27
2022-10-15T13:11:43.658Z,3.97
2022-10-15T13:14:59.108Z,4.30
2022-10-15T13:17:36.586Z,4.27
2022-10-15T13:20:31.624Z,4.30
2022-10-15T13:25:37.199Z,4.33
2022-10-15T13:28:30.970Z,4.40
2022-10-15T13:30:59.401Z,4.10
2022-10-15T13:33:28.139Z,3.70
2022-10-15T13:35:56.293Z,3.80
2022-10-15T13:38:26.056Z,3.77
2022-10-15T13:40:55.394Z,3.53
2022-10-15T13:43:25.064Z,2.90
2022-10-15T13:45:58.181Z,2.93
2022-10-15T13:48:29.880Z,2.83
2022-10-15T13:51:02.196Z,2.97
2022-10-15T13:53:44.879Z,2.20
2022-10-15T13:56:25.476Z,2.60
2022-10-15T13:58:54.848Z,2.23
2022-10-15T14:01:25.898Z,2.33
2022-10-15T14:03:56.371Z,2.43
2022-10-15T14:06:25.727Z,2.50
2022-10-15T14:08:57.612Z,2.60
2022-10-15T14:11:25.993Z,3.00
2022-10-15T14:13:55.734Z,2.70
2022-10-15T14:16:29.045Z,2.97
2022-10-15T14:18:59.607Z,2.80
2022-10-15T14:21:32.391Z,2.90
2022-10-15T14:24:06.671Z,2.90
2022-10-15T14:26:35.910Z,2.80
2022-10-15T14:29:04.117Z,2.93
2022-10-15T14:31:39.185Z,2.57
2022-10-15T14:34:31.513Z,2.43
2022-10-15T14:36:59.517Z,2.50
2022-10-15T14:39:30.466Z,2.63
2022-10-15T14:41:59.942Z,2.33
2022-10-15T14:44:41.070Z,2.00
2022-10-15T14:47:20.789Z,2.97
2022-10-15T14:49:50.268Z,2.57
2022-10-15T14:52:20.491Z,1.87
2022-10-15T14:55:01.376Z,2.03
2022-10-15T14:57:32.644Z,2.00
2022-10-15T15:00:01.764Z,3.20
2022-10-15T15:02:31.559Z,1.77
2022-10-15T15:05:10.314Z,1.17
2022-10-15T15:07:38.872Z,1.57
2022-10-15T15:10:08.939Z,6.37
2022-10-15T15:12:39.484Z,4.77
2022-10-15T15:15:14.572Z,4.00
2022-10-15T15:17:47.838Z,1.90
2022-10-15T15:20:16.998Z,5.27
2022-10-15T15:22:44.941Z,4.07
2022-10-15T15:25:16.998Z,1.67
2022-10-15T15:27:44.885Z,2.63
2022-10-15T15:30:17.422Z,6.33
2022-10-15T15:32:46.829Z,2.53
2022-10-15T15:35:29.405Z,1.40
2022-10-15T15:37:57.310Z,3.83
2022-10-15T15:40:25.247Z,2.80
2022-10-15T15:42:53.137Z,1.97
2022-10-15T15:45:23.739Z,3.90
2022-10-15T15:47:53.097Z,5.57
2022-10-15T15:50:22.164Z,3.53
2022-10-15T15:52:50.011Z,3.27
2022-10-15T15:55:18.353Z,1.73
2022-10-15T15:57:46.284Z,5.00
2022-10-15T16:00:14.956Z,5.33
2022-10-15T16:02:43.788Z,3.73
2022-10-15T16:05:15.850Z,4.90
2022-10-15T16:07:43.707Z,4.77
2022-10-15T16:10:14.571Z,3.87
2022-10-15T16:12:51.470Z,2.93
2022-10-15T16:15:19.482Z,3.53
2022-10-15T16:17:47.313Z,4.70
2022-10-15T16:20:21.544Z,3.40
2022-10-15T16:22:50.794Z,2.13
2022-10-15T16:25:19.094Z,5.23
2022-10-15T16:27:48.735Z,3.47
2022-10-15T16:30:17.208Z,2.23
2022-10-15T16:32:45.088Z,2.60
2022-10-15T16:35:13.218Z,3.77
2022-10-15T16:37:42.579Z,2.17
2022-10-15T16:40:11.421Z,2.13
2022-10-15T16:42:39.298Z,2.97
2022-10-15T16:45:08.015Z,3.80
2022-10-15T16:47:35.874Z,3.57
2022-10-15T16:50:05.511Z,4.47
2022-10-15T16:52:35.388Z,3.03
2022-10-15T16:57:44.405Z,2.87
2022-10-15T17:00:13.321Z,2.00
2022-10-15T17:02:41.462Z,2.27
2022-10-15T17:05:09.991Z,4.17
2022-10-15T17:07:37.835Z,1.50
2022-10-15T17:10:09.643Z,1.17
2022-10-15T17:12:40.359Z,2.67
2022-10-15T17:15:10.771Z,3.70
2022-10-15T17:17:38.585Z,6.47
2022-10-15T17:20:09.105Z,5.20
2022-10-15T17:22:37.541Z,11.97
2022-10-15T17:25:06.066Z,14.13
2022-10-15T17:27:35.600Z,12.27
2022-10-15T17:30:03.618Z,20.87
2022-10-15T17:32:32.874Z,26.97
2022-10-15T17:35:04.080Z,16.90
2022-10-15T17:37:32.289Z,19.13
2022-10-15T17:40:00.501Z,11.67
2022-10-15T17:42:28.582Z,8.23
2022-10-15T17:44:56.469Z,9.10
2022-10-15T17:47:24.720Z,7.20
2022-10-15T17:49:54.117Z,7.47
2022-10-15T17:52:22.065Z,15.13
2022-10-15T17:54:50.117Z,12.00
2022-10-15T17:57:18.028Z,6.63
2022-10-15T17:59:48.806Z,1.70
2022-10-15T18:02:19.141Z,3.57
2022-10-15T18:04:47.504Z,1.97
2022-10-15T18:07:18.886Z,5.10
2022-10-15T18:09:47.175Z,2.83
2022-10-15T18:12:15.662Z,7.43
2022-10-15T18:14:43.479Z,5.17
2022-10-15T18:17:11.840Z,4.10
2022-10-15T18:19:39.728Z,4.70
2022-10-15T18:22:07.592Z,3.50
2022-10-15T18:24:36.897Z,4.90
2022-10-15T18:27:04.883Z,3.37
2022-10-15T18:29:33.212Z,6.33
2022-10-15T18:32:01.181Z,3.90
2022-10-15T18:34:30.334Z,4.73
2022-10-15T18:36:58.350Z,3.67
2022-10-15T18:39:30.963Z,5.37
2022-10-15T18:42:01.199Z,2.87
2022-10-15T18:44:29.337Z,5.30
2022-10-15T18:46:58.425Z,5.10
2022-10-15T18:49:26.342Z,7.27
2022-10-15T18:51:55.293Z,7.73
2022-10-15T18:54:23.556Z,6.73
2022-10-15T18:59:55.518Z,5.43
2022-10-15T19:02:24.238Z,8.10
2022-10-15T19:04:55.498Z,5.97
2022-10-15T19:07:23.335Z,5.27
2022-10-15T19:09:56.901Z,4.87
2022-10-15T19:12:25.748Z,11.90
2022-10-15T19:14:55.361Z,11.07
2022-10-15T19:20:22.412Z,8.90
2022-10-15T19:22:52.171Z,7.23
2022-10-15T19:25:20.136Z,5.77
2022-10-15T19:27:49.304Z,6.57
2022-10-15T19:30:30.820Z,9.63
2022-10-15T19:33:15.859Z,10.37
2022-10-15T19:38:50.808Z,6.97
2022-10-15T19:41:28.887Z,3.23
2022-10-15T19:43:57.296Z,6.97
2022-10-15T19:46:29.282Z,4.33
2022-10-15T19:48:59.623Z,11.57
2022-10-15T19:51:27.580Z,17.83
2022-10-15T19:53:59.054Z,15.37
2022-10-15T19:56:28.678Z,6.93
2022-10-15T19:58:56.767Z,9.57
2022-10-15T20:01:26.335Z,5.47
2022-10-15T20:03:54.571Z,3.43
2022-10-15T20:06:23.025Z,3.10
2022-10-15T20:08:53.313Z,4.57
2022-10-15T20:11:24.175Z,4.50
2022-10-15T20:13:53.666Z,5.17
2022-10-15T20:16:23.264Z,2.80
2022-10-15T20:18:53.416Z,5.67
2022-10-15T20:21:22.654Z,2.50
2022-10-15T20:23:50.889Z,3.67
2022-10-15T20:26:19.030Z,5.57
2022-10-15T20:28:48.019Z,3.10
2022-10-15T20:31:19.976Z,3.83
2022-10-15T20:33:48.323Z,3.97
2022-10-15T20:36:23.454Z,4.87
2022-10-15T20:38:51.844Z,4.53
2022-10-15T20:41:20.376Z,3.23
2022-10-15T20:43:54.742Z,3.20
2022-10-15T20:46:28.430Z,4.10
2022-10-15T20:49:02.204Z,3.43
2022-10-15T20:51:38.456Z,4.33
2022-10-15T20:54:10.352Z,5.47
2022-10-15T20:56:38.606Z,5.23
2022-10-15T20:59:08.508Z,4.73
2022-10-15T21:01:39.874Z,6.47
2022-10-15T21:04:07.963Z,2.27
2022-10-15T21:06:40.737Z,8.97
2022-10-15T21:09:09.675Z,2.90
2022-10-15T21:11:43.354Z,2.70
2022-10-15T21:14:15.521Z,2.53
2022-10-15T21:16:43.395Z,4.33
2022-10-15T21:19:11.718Z,5.67
2022-10-15T21:21:42.845Z,7.90
2022-10-15T21:24:10.742Z,4.00
2022-10-15T21:26:38.554Z,4.60
2022-10-15T21:29:11.310Z,3.57
2022-10-15T21:31:39.114Z,2.17
2022-10-15T21:34:07.051Z,3.07
2022-10-15T21:36:34.916Z,3.27
2022-10-15T21:39:06.972Z,3.00
2022-10-15T21:41:37.617Z,4.70
2022-10-15T21:44:07.825Z,5.53
2022-10-15T21:46:36.136Z,3.10
2022-10-15T21:49:04.078Z,2.67
2022-10-15T21:51:35.845Z,3.47
2022-10-15T21:54:07.098Z,4.13
2022-10-15T21:56:35.723Z,10.93
2022-10-15T21:59:07.594Z,3.10
2022-10-15T22:01:37.686Z,4.87
2022-10-15T22:04:08.461Z,5.60
2022-10-15T22:06:39.854Z,4.80
2022-10-15T22:09:10.436Z,4.63
2022-10-15T22:11:40.197Z,3.03
2022-10-15T22:14:09.494Z,2.60
2022-10-15T22:16:40.348Z,2.80
2022-10-15T22:19:09.658Z,3.50
2022-10-15T22:21:39.552Z,4.17
2022-10-15T22:24:12.222Z,2.47
2022-10-15T22:26:45.572Z,5.23
2022-10-15T22:29:18.565Z,2.90
2022-10-15T22:31:47.508Z,3.53
2022-10-15T22:34:22.523Z,5.20
2022-10-15T22:37:13.219Z,3.77
2022-10-15T22:39:59.657Z,3.57
2022-10-15T22:42:30.749Z,2.30
2022-10-15T22:44:58.634Z,4.33
2022-10-15T22:50:23.477Z,3.37
2022-10-15T22:52:52.221Z,2.50
2022-10-15T22:55:21.429Z,4.60
2022-10-15T23:00:45.792Z,3.33
2022-10-15T23:03:14.444Z,3.60
2022-10-15T23:05:42.535Z,3.27
2022-10-15T23:10:41.223Z,3.60
2022-10-15T23:13:09.041Z,1.77
2022-10-15T23:15:36.855Z,1.67
2022-10-15T23:18:11.542Z,1.43
2022-10-15T23:20:42.199Z,4.03
2022-10-15T23:23:14.643Z,4.77
2022-10-15T23:25:49.106Z,3.47
2022-10-15T23:28:16.898Z,3.70
2022-10-15T23:30:44.737Z,2.37
2022-10-15T23:33:13.126Z,4.33
2022-10-15T23:35:40.948Z,3.53
2022-10-15T23:38:08.773Z,2.00
2022-10-15T23:40:38.817Z,2.17
2022-10-15T23:43:08.242Z,2.90
2022-10-15T23:45:38.110Z,3.33
2022-10-15T23:48:21.416Z,2.20
2022-10-15T23:50:49.322Z,4.07
2022-10-15T23:56:03.560Z,3.53
2022-10-15T23:58:33.028Z,5.67
